Saga Sapphire — 9HOF8 — position and weather

sailwx.info

Track history (hours):
 
Tides and Currents Weather Stations Pressure Air Temp Water Temp Dewpoint Dewpoint Depression Visibility Wind Speed Wind Dir Waves Ship Positions

Saga Sapphire

Last reported at 2015-May-29 19:23 UTC. Time now 2015-May-29 20:07 UTC.
Position N 51°07' E 001°19'.

Length 200 m; draft 8.5 m.

Type: Passenger vessel. MMSI: 256208000.

Date/timePositionNaut miles runAvg speedWind from/ knotsBaromVisibWave heightAir tempDewpointWater temp
2015-May-29 19:23N 51°07' E 001°19'0 0.0
2015-May-29 17:08N 51°07' E 001°19'0 0.0
2015-May-29 10:23N 51°07' E 001°19'0 0.0
2015-May-29 09:32N 51°07' E 001°19'0 0.0
2015-May-29 08:26N 51°07' E 001°19'4 5.1
2015-May-29 07:33N 51°08' E 001°26'1110.5
2015-May-29 06:34N 51°15' E 001°39'1413.9
2015-May-29 05:33N 51°28' E 001°47'1514.6
2015-May-29 04:34N 51°40' E 002°00'1714.7
2015-May-29 03:26N 51°54' E 002°14'1514.1
2015-May-29 02:21N 52°08' E 002°20'1313.3
2015-May-29 01:21N 52°21' E 002°26'1113.4
2015-May-29 00:33N 52°32' E 002°30'  
2015-May-24 16:34N 59°19' E 004°57'1514.8
2015-May-24 15:34N 59°07' E 005°14'1313.2
2015-May-24 14:33N 59°02' E 005°38'5 4.4
2015-May-24 13:31N 58°58' E 005°44'0 0.0
2015-May-24 12:31N 58°58' E 005°44'0 0.0
2015-May-24 11:31N 58°58' E 005°44'0 0.0
2015-May-24 10:31N 58°58' E 005°44'0 0.0
2015-May-24 09:31N 58°58' E 005°44'0 0.0
2015-May-24 08:31N 58°58' E 005°44'0 0.0
2015-May-24 07:31N 58°58' E 005°44'0 0.0
2015-May-24 06:31N 58°58' E 005°44'0 0.0
2015-May-24 05:31N 58°58' E 005°44'2 2.6
2015-May-24 04:33N 59°00' E 005°41'6 5.9
2015-May-24 03:33N 58°56' E 005°33'1110.9
2015-May-24 02:33N 58°47' E 005°22'1412.7
2015-May-24 01:27N 58°33' E 005°21'1212.9
2015-May-24 00:33N 58°21' E 005°25'1413.4
2015-May-23 23:33N 58°08' E 005°27'29114.5
2015-May-23 03:26N 53°29' E 002°59'9614.0
2015-May-22 20:33N 51°56' E 002°15'1616.2
2015-May-22 19:33N 51°41' E 002°05'1515.3
2015-May-22 18:34N 51°30' E 001°49'1615.7
2015-May-22 17:34N 51°15' E 001°42'1312.6
2015-May-22 16:33N 51°07' E 001°25'4 0.7
2015-May-22 10:31N 51°07' E 001°19'0 0.0
2015-May-22 06:32N 51°07' E 001°19'7 7.3
2015-May-22 05:34N 51°08' E 001°30'1111.3
2015-May-22 04:33N 51°14' E 001°45'1211.6
2015-May-22 03:34N 51°24' E 001°54'1212.0
2015-May-22 02:33N 51°33' E 002°07'1212.3
2015-May-22 01:33N 51°41' E 002°22'1513.0
2015-May-22 00:22N 51°54' E 002°36'1214.1
2015-May-21 23:33N 52°03' E 002°48'1414.1
2015-May-21 22:33N 52°13' E 003°04'1414.2
2015-May-21 21:33N 52°20' E 003°24'1313.1
2015-May-21 20:33N 52°27' E 003°42'1313.1
2015-May-21 19:33N 52°31' E 004°02'1212.2
2015-May-21 18:33N 52°30' E 004°22'8 7.6
2015-May-21 17:34N 52°28' E 004°34'0 0.0
2015-May-21 16:33N 52°28' E 004°34'0 0.0
2015-May-21 15:33N 52°28' E 004°34'4 7.9
2015-May-21 15:00N 52°24' E 004°30'4 9.0 270 / 71026.510.8 14.2 8.2
2015-May-21 14:30N 52°28' E 004°34'0 0.0
2015-May-21 13:33N 52°28' E 004°34'0 0.0
2015-May-21 12:33N 52°28' E 004°34'0 0.0
2015-May-21 11:33N 52°28' E 004°34'0 0.0
2015-May-21 10:30N 52°28' E 004°34'1 1.0
2015-May-21 09:34N 52°28' E 004°33'1010.2
2015-May-21 08:33N 52°30' E 004°16'1313.4
2015-May-21 07:33N 52°40' E 004°02'1514.4
2015-May-21 06:29N 52°56' E 003°60'2814.0
2015-May-21 04:29N 53°17' E 004°29'1415.1
2015-May-21 03:33N 53°29' E 004°41'1616.2
2015-May-21 02:33N 53°35' E 005°07'1616.0
2015-May-21 01:33N 53°41' E 005°32'1515.4
2015-May-21 00:33N 53°45' E 005°57'4414.4
2015-May-20 21:29N 53°58' E 007°09'1314.2
2015-May-20 20:33N 54°00' E 007°31'1515.1
2015-May-20 19:33N 54°02' E 007°56'1413.7
2015-May-20 18:30N 53°60' E 008°21'1415.1
2015-May-20 17:33N 53°53' E 008°42'1313.5
2015-May-20 16:33N 53°52' E 009°05'3 2.9
2015-May-20 15:33N 53°54' E 009°09'2 2.2
2015-May-20 14:33N 53°56' E 009°12'6 6.3
2015-May-20 13:33N 54°01' E 009°18'6 5.7
2015-May-20 12:33N 54°07' E 009°20'6 5.8
2015-May-20 11:33N 54°10' E 009°27'4 3.9
2015-May-20 10:33N 54°12' E 009°33'4 4.2
2015-May-20 09:33N 54°15' E 009°37'6 5.5
2015-May-20 08:33N 54°20' E 009°43'6 6.1
2015-May-20 07:33N 54°21' E 009°53'6 5.9
2015-May-20 06:33N 54°22' E 010°04'3 2.8
2015-May-20 05:33N 54°22' E 010°08'1 1.2
2015-May-20 04:33N 54°22' E 010°10'2 1.5
2015-May-20 03:33N 54°23' E 010°12'3 3.2
2015-May-20 02:33N 54°26' E 010°14'6 5.8
2015-May-20 01:33N 54°31' E 010°21'10 9.5
2015-May-20 00:33N 54°34' E 010°36'10 9.7
2015-May-19 23:33N 54°35' E 010°52'1010.3
2015-May-19 22:33N 54°37' E 011°10'10 9.8
2015-May-19 21:33N 54°32' E 011°25'1010.1
2015-May-19 20:33N 54°28' E 011°41'1111.2
2015-May-19 19:33N 54°22' E 011°58'  
Track history (hours):
 
Tides and Currents Weather Stations Pressure Air Temp Water Temp Dewpoint Dewpoint Depression Visibility Wind Speed Wind Dir Waves Ship Positions

Saga Sapphire

Last reported at 2015-May-29 19:23 UTC. Time now 2015-May-29 20:07 UTC.
Position N 51°07' E 001°19'.

Length 200 m; draft 8.5 m.

Type: Passenger vessel. MMSI: 256208000.

Date/timePositionNaut miles runAvg speedWind from/ knotsBaromVisibWave heightAir tempDewpointWater temp
2015-May-29 19:23N 51°07' E 001°19'0 0.0
2015-May-29 17:08N 51°07' E 001°19'0 0.0
2015-May-29 10:23N 51°07' E 001°19'0 0.0
2015-May-29 09:32N 51°07' E 001°19'0 0.0
2015-May-29 08:26N 51°07' E 001°19'4 5.1
2015-May-29 07:33N 51°08' E 001°26'1110.5
2015-May-29 06:34N 51°15' E 001°39'1413.9
2015-May-29 05:33N 51°28' E 001°47'1514.6
2015-May-29 04:34N 51°40' E 002°00'1714.7
2015-May-29 03:26N 51°54' E 002°14'1514.1
2015-May-29 02:21N 52°08' E 002°20'1313.3
2015-May-29 01:21N 52°21' E 002°26'1113.4
2015-May-29 00:33N 52°32' E 002°30'  
2015-May-24 16:34N 59°19' E 004°57'1514.8
2015-May-24 15:34N 59°07' E 005°14'1313.2
2015-May-24 14:33N 59°02' E 005°38'5 4.4
2015-May-24 13:31N 58°58' E 005°44'0 0.0
2015-May-24 12:31N 58°58' E 005°44'0 0.0
2015-May-24 11:31N 58°58' E 005°44'0 0.0
2015-May-24 10:31N 58°58' E 005°44'0 0.0
2015-May-24 09:31N 58°58' E 005°44'0 0.0
2015-May-24 08:31N 58°58' E 005°44'0 0.0
2015-May-24 07:31N 58°58' E 005°44'0 0.0
2015-May-24 06:31N 58°58' E 005°44'0 0.0
2015-May-24 05:31N 58°58' E 005°44'2 2.6
2015-May-24 04:33N 59°00' E 005°41'6 5.9
2015-May-24 03:33N 58°56' E 005°33'1110.9
2015-May-24 02:33N 58°47' E 005°22'1412.7
2015-May-24 01:27N 58°33' E 005°21'1212.9
2015-May-24 00:33N 58°21' E 005°25'1413.4
2015-May-23 23:33N 58°08' E 005°27'29114.5
2015-May-23 03:26N 53°29' E 002°59'9614.0
2015-May-22 20:33N 51°56' E 002°15'1616.2
2015-May-22 19:33N 51°41' E 002°05'1515.3
2015-May-22 18:34N 51°30' E 001°49'1615.7
2015-May-22 17:34N 51°15' E 001°42'1312.6
2015-May-22 16:33N 51°07' E 001°25'4 0.7
2015-May-22 10:31N 51°07' E 001°19'0 0.0
2015-May-22 06:32N 51°07' E 001°19'7 7.3
2015-May-22 05:34N 51°08' E 001°30'1111.3
2015-May-22 04:33N 51°14' E 001°45'1211.6
2015-May-22 03:34N 51°24' E 001°54'1212.0
2015-May-22 02:33N 51°33' E 002°07'1212.3
2015-May-22 01:33N 51°41' E 002°22'1513.0
2015-May-22 00:22N 51°54' E 002°36'1214.1
2015-May-21 23:33N 52°03' E 002°48'1414.1
2015-May-21 22:33N 52°13' E 003°04'1414.2
2015-May-21 21:33N 52°20' E 003°24'1313.1
2015-May-21 20:33N 52°27' E 003°42'1313.1
2015-May-21 19:33N 52°31' E 004°02'1212.2
2015-May-21 18:33N 52°30' E 004°22'8 7.6
2015-May-21 17:34N 52°28' E 004°34'0 0.0
2015-May-21 16:33N 52°28' E 004°34'0 0.0
2015-May-21 15:33N 52°28' E 004°34'4 7.9
2015-May-21 15:00N 52°24' E 004°30'4 9.0 270 / 71026.510.8 14.2 8.2
2015-May-21 14:30N 52°28' E 004°34'0 0.0
2015-May-21 13:33N 52°28' E 004°34'0 0.0
2015-May-21 12:33N 52°28' E 004°34'0 0.0
2015-May-21 11:33N 52°28' E 004°34'0 0.0
2015-May-21 10:30N 52°28' E 004°34'1 1.0
2015-May-21 09:34N 52°28' E 004°33'1010.2
2015-May-21 08:33N 52°30' E 004°16'1313.4
2015-May-21 07:33N 52°40' E 004°02'1514.4
2015-May-21 06:29N 52°56' E 003°60'2814.0
2015-May-21 04:29N 53°17' E 004°29'1415.1
2015-May-21 03:33N 53°29' E 004°41'1616.2
2015-May-21 02:33N 53°35' E 005°07'1616.0
2015-May-21 01:33N 53°41' E 005°32'1515.4
2015-May-21 00:33N 53°45' E 005°57'4414.4
2015-May-20 21:29N 53°58' E 007°09'1314.2
2015-May-20 20:33N 54°00' E 007°31'1515.1
2015-May-20 19:33N 54°02' E 007°56'1413.7
2015-May-20 18:30N 53°60' E 008°21'1415.1
2015-May-20 17:33N 53°53' E 008°42'1313.5
2015-May-20 16:33N 53°52' E 009°05'3 2.9
2015-May-20 15:33N 53°54' E 009°09'2 2.2
2015-May-20 14:33N 53°56' E 009°12'6 6.3
2015-May-20 13:33N 54°01' E 009°18'6 5.7
2015-May-20 12:33N 54°07' E 009°20'6 5.8
2015-May-20 11:33N 54°10' E 009°27'4 3.9
2015-May-20 10:33N 54°12' E 009°33'4 4.2
2015-May-20 09:33N 54°15' E 009°37'6 5.5
2015-May-20 08:33N 54°20' E 009°43'6 6.1
2015-May-20 07:33N 54°21' E 009°53'6 5.9
2015-May-20 06:33N 54°22' E 010°04'3 2.8
2015-May-20 05:33N 54°22' E 010°08'1 1.2
2015-May-20 04:33N 54°22' E 010°10'2 1.5
2015-May-20 03:33N 54°23' E 010°12'3 3.2
2015-May-20 02:33N 54°26' E 010°14'6 5.8
2015-May-20 01:33N 54°31' E 010°21'10 9.5
2015-May-20 00:33N 54°34' E 010°36'10 9.7
2015-May-19 23:33N 54°35' E 010°52'1010.3
2015-May-19 22:33N 54°37' E 011°10'10 9.8
2015-May-19 21:33N 54°32' E 011°25'1010.1
2015-May-19 20:33N 54°28' E 011°41'1111.2
2015-May-19 19:33N 54°22' E 011°58'  

Dump ship's entire track history